Главная страница
METAR-TAF:

METAR-TAF

Аэропорты :

Пермь, Россия

широта: 58-00N, долгота: 056-15E, высота над уровнем моря: 170 м

Текущие метеонаблюдения

Эта сводка был подготовлена 15 минут назад, в 23:00 UTC
Ветер 8 Узел от восточно-юго-восточный
Температура 17°C
Влажность 88%
Давление 1014 hPa
Видимость 10 км и более
Нет облачности ниже 1500 м, и нет кучево-дождевой облачности

METAR: USPP 152300Z 12004MPS CAVOK 17/15 Q1014 R21/090060 TEMPO 1000 BR FU FEW003 RMK QFE750

Время: 04:15 (23:15 UTC)

Прогноз

Эта сводка был подготовлена 3 часа и 17 минут назад, в 19:58 UTC
Прогноз действительный с 15-го 21 UTC до 16-го 21 UTC
Ветер 6 Узел от восточно-юго-восточный
Видимость 10 км и более
Нет облачности ниже 1500 м, и нет кучево-дождевой облачности
временами
С 15-го 21 UTC до 16-го 02 UTC
Видимость: 3100 м
Отдельные облака на высоте 1100 фута
дымка, дым

TAF: USPP 151958Z 1521/1621 12003MPS CAVOK TEMPO 1521/1602 3100 BR FU SCT011

Метеонаблюдения и прогнозы для более 4000 аэропортов (сводки METAR и TAF).

Имеющиеся станции представлены на карте желтыми и красными точками.

Чтобы увидеть название станции, наведите на нее мышь.

Затем щелкните, чтобы увидеть метеонаблюдения и метеопрогнозы.

Управление картой: чтобы увеличить масштаб, щелкните зеленые кнопки с черным крестиком; чтобы уменьшить масштаб, щелкните зеленую кнопку с тире; для просмотра соседних карт щелкайте зеленые стрелки.


METAR-TAF: